sensor_id;sensor_type;location;lat;lon;timestamp;pressure;altitude;pressure_sealevel;temperature;humidity
79378;BME280;68959;53.132;17.984;2023-06-05T00:01:06;101770.10;;;12.08;47.07
79378;BME280;68959;53.132;17.984;2023-06-05T00:03:48;101771.27;;;12.05;47.25
79378;BME280;68959;53.132;17.984;2023-06-05T00:06:13;101765.71;;;12.03;47.77
79378;BME280;68959;53.132;17.984;2023-06-05T00:08:40;101769.07;;;12.00;47.76
79378;BME280;68959;53.132;17.984;2023-06-05T00:11:06;101767.84;;;11.95;47.94
79378;BME280;68959;53.132;17.984;2023-06-05T00:13:31;101767.56;;;11.92;48.38
79378;BME280;68959;53.132;17.984;2023-06-05T00:15:57;101769.71;;;11.88;48.78
79378;BME280;68959;53.132;17.984;2023-06-05T00:18:23;101765.42;;;11.82;48.94
79378;BME280;68959;53.132;17.984;2023-06-05T00:20:50;101769.08;;;11.78;49.15
79378;BME280;68959;53.132;17.984;2023-06-05T00:23:16;101769.23;;;11.74;49.36
79378;BME280;68959;53.132;17.984;2023-06-05T00:25:41;101767.91;;;11.69;49.35
79378;BME280;68959;53.132;17.984;2023-06-05T00:28:07;101769.91;;;11.62;49.59
79378;BME280;68959;53.132;17.984;2023-06-05T00:30:33;101775.05;;;11.58;49.81
79378;BME280;68959;53.132;17.984;2023-06-05T00:33:01;101771.48;;;11.53;50.11
79378;BME280;68959;53.132;17.984;2023-06-05T00:35:27;101772.93;;;11.50;49.93
79378;BME280;68959;53.132;17.984;2023-06-05T00:37:52;101768.71;;;11.46;49.81
79378;BME280;68959;53.132;17.984;2023-06-05T00:40:18;101772.10;;;11.43;49.90
79378;BME280;68959;53.132;17.984;2023-06-05T00:42:46;101767.34;;;11.40;49.56
79378;BME280;68959;53.132;17.984;2023-06-05T00:45:12;101767.95;;;11.37;49.80
79378;BME280;68959;53.132;17.984;2023-06-05T00:47:38;101769.56;;;11.35;49.76
79378;BME280;68959;53.132;17.984;2023-06-05T00:50:07;101769.06;;;11.31;49.83
79378;BME280;68959;53.132;17.984;2023-06-05T00:52:34;101768.45;;;11.28;49.80
79378;BME280;68959;53.132;17.984;2023-06-05T00:55:01;101765.76;;;11.25;49.88
79378;BME280;68959;53.132;17.984;2023-06-05T00:57:27;101765.84;;;11.24;49.96
79378;BME280;68959;53.132;17.984;2023-06-05T00:59:54;101767.27;;;11.23;50.10
79378;BME280;68959;53.132;17.984;2023-06-05T01:02:20;101768.29;;;11.21;50.42
79378;BME280;68959;53.132;17.984;2023-06-05T01:04:48;101767.15;;;11.19;50.58
79378;BME280;68959;53.132;17.984;2023-06-05T01:07:14;101765.50;;;11.17;50.99
79378;BME280;68959;53.132;17.984;2023-06-05T01:09:42;101765.76;;;11.15;51.08
79378;BME280;68959;53.132;17.984;2023-06-05T01:12:19;101763.83;;;11.13;51.27
79378;BME280;68959;53.132;17.984;2023-06-05T01:14:48;101763.27;;;11.09;51.59
79378;BME280;68959;53.132;17.984;2023-06-05T01:17:16;101761.52;;;11.07;51.24
79378;BME280;68959;53.132;17.984;2023-06-05T01:19:46;101762.04;;;11.06;51.79
79378;BME280;68959;53.132;17.984;2023-06-05T01:22:15;101762.97;;;10.99;52.66
79378;BME280;68959;53.132;17.984;2023-06-05T01:24:41;101760.42;;;10.93;52.49
79378;BME280;68959;53.132;17.984;2023-06-05T01:29:57;101764.80;;;10.81;53.17
79378;BME280;68959;53.132;17.984;2023-06-05T01:35:13;101762.20;;;10.69;54.07
79378;BME280;68959;53.132;17.984;2023-06-05T01:37:43;101766.57;;;10.64;54.17
79378;BME280;68959;53.132;17.984;2023-06-05T01:40:20;101761.73;;;10.58;53.97
79378;BME280;68959;53.132;17.984;2023-06-05T01:42:47;101762.56;;;10.51;54.88
79378;BME280;68959;53.132;17.984;2023-06-05T01:45:15;101763.67;;;10.46;55.06
79378;BME280;68959;53.132;17.984;2023-06-05T01:47:44;101763.70;;;10.40;55.30
79378;BME280;68959;53.132;17.984;2023-06-05T01:50:14;101756.09;;;10.34;55.40
79378;BME280;68959;53.132;17.984;2023-06-05T01:52:41;101755.33;;;10.30;55.72
79378;BME280;68959;53.132;17.984;2023-06-05T01:55:08;101756.98;;;10.25;56.21
79378;BME280;68959;53.132;17.984;2023-06-05T01:57:44;101755.52;;;10.19;56.58
79378;BME280;68959;53.132;17.984;2023-06-05T02:00:11;101756.59;;;10.11;56.39
79378;BME280;68959;53.132;17.984;2023-06-05T02:02:46;101756.45;;;10.01;56.54
79378;BME280;68959;53.132;17.984;2023-06-05T02:05:14;101756.13;;;9.94;56.62
79378;BME280;68959;53.132;17.984;2023-06-05T02:07:45;101757.28;;;9.87;56.74
79378;BME280;68959;53.132;17.984;2023-06-05T02:10:24;101756.84;;;9.79;56.99
79378;BME280;68959;53.132;17.984;2023-06-05T02:12:50;101756.14;;;9.71;57.04
79378;BME280;68959;53.132;17.984;2023-06-05T02:15:17;101755.14;;;9.63;57.57
79378;BME280;68959;53.132;17.984;2023-06-05T02:17:44;101754.60;;;9.55;57.43
79378;BME280;68959;53.132;17.984;2023-06-05T02:20:14;101754.84;;;9.49;57.44
79378;BME280;68959;53.132;17.984;2023-06-05T02:22:43;101753.29;;;9.44;57.58
79378;BME280;68959;53.132;17.984;2023-06-05T02:25:16;101753.52;;;9.38;57.88
79378;BME280;68959;53.132;17.984;2023-06-05T02:27:42;101755.68;;;9.31;57.84
79378;BME280;68959;53.132;17.984;2023-06-05T02:30:09;101753.58;;;9.26;58.04
79378;BME280;68959;53.132;17.984;2023-06-05T02:32:37;101752.12;;;9.23;58.07
79378;BME280;68959;53.132;17.984;2023-06-05T02:35:08;101753.80;;;9.21;58.44
79378;BME280;68959;53.132;17.984;2023-06-05T02:37:34;101750.92;;;9.20;58.71
79378;BME280;68959;53.132;17.984;2023-06-05T02:40:04;101752.23;;;9.19;59.00
79378;BME280;68959;53.132;17.984;2023-06-05T02:42:31;101753.02;;;9.17;59.26
79378;BME280;68959;53.132;17.984;2023-06-05T02:44:57;101756.04;;;9.14;59.20
79378;BME280;68959;53.132;17.984;2023-06-05T02:47:23;101753.92;;;9.12;59.45
79378;BME280;68959;53.132;17.984;2023-06-05T02:49:49;101757.90;;;9.07;59.59
79378;BME280;68959;53.132;17.984;2023-06-05T02:52:15;101761.08;;;9.05;59.29
79378;BME280;68959;53.132;17.984;2023-06-05T02:54:41;101764.55;;;9.02;59.62
79378;BME280;68959;53.132;17.984;2023-06-05T02:57:08;101764.79;;;9.01;59.47
79378;BME280;68959;53.132;17.984;2023-06-05T02:59:34;101763.77;;;9.00;59.59
79378;BME280;68959;53.132;17.984;2023-06-05T03:02:06;101763.94;;;9.02;59.55
79378;BME280;68959;53.132;17.984;2023-06-05T03:04:32;101761.52;;;9.02;59.47
79378;BME280;68959;53.132;17.984;2023-06-05T03:06:58;101767.09;;;9.00;59.85
79378;BME280;68959;53.132;17.984;2023-06-05T03:09:30;101767.39;;;8.97;59.85
79378;BME280;68959;53.132;17.984;2023-06-05T03:11:57;101771.34;;;8.98;59.63
79378;BME280;68959;53.132;17.984;2023-06-05T03:14:25;101767.78;;;8.99;59.84
79378;BME280;68959;53.132;17.984;2023-06-05T03:16:52;101766.60;;;9.02;59.46
79378;BME280;68959;53.132;17.984;2023-06-05T03:19:20;101770.20;;;9.07;59.43
79378;BME280;68959;53.132;17.984;2023-06-05T03:21:46;101766.81;;;9.15;59.63
79378;BME280;68959;53.132;17.984;2023-06-05T03:24:14;101769.34;;;9.19;59.83
79378;BME280;68959;53.132;17.984;2023-06-05T03:26:41;101771.90;;;9.22;59.64
79378;BME280;68959;53.132;17.984;2023-06-05T03:29:08;101767.80;;;9.26;59.85
79378;BME280;68959;53.132;17.984;2023-06-05T03:31:34;101769.55;;;9.32;59.79
79378;BME280;68959;53.132;17.984;2023-06-05T03:34:02;101764.08;;;9.38;59.52
79378;BME280;68959;53.132;17.984;2023-06-05T03:36:30;101769.03;;;9.46;59.45
79378;BME280;68959;53.132;17.984;2023-06-05T03:38:58;101771.52;;;9.56;58.75
79378;BME280;68959;53.132;17.984;2023-06-05T03:41:26;101771.87;;;9.66;58.92
79378;BME280;68959;53.132;17.984;2023-06-05T03:43:52;101769.94;;;9.75;58.37
79378;BME280;68959;53.132;17.984;2023-06-05T03:46:19;101773.47;;;9.87;58.49
79378;BME280;68959;53.132;17.984;2023-06-05T03:48:48;101772.27;;;10.00;58.31
79378;BME280;68959;53.132;17.984;2023-06-05T03:51:21;101770.61;;;10.12;58.11
79378;BME280;68959;53.132;17.984;2023-06-05T03:53:49;101768.83;;;10.20;58.17
79378;BME280;68959;53.132;17.984;2023-06-05T03:56:20;101765.15;;;10.30;57.50
79378;BME280;68959;53.132;17.984;2023-06-05T03:58:49;101767.84;;;10.39;57.84
79378;BME280;68959;53.132;17.984;2023-06-05T04:01:16;101767.98;;;10.46;57.64
79378;BME280;68959;53.132;17.984;2023-06-05T04:03:42;101765.56;;;10.56;57.63
79378;BME280;68959;53.132;17.984;2023-06-05T04:06:08;101767.77;;;10.66;57.47
79378;BME280;68959;53.132;17.984;2023-06-05T04:08:34;101768.83;;;10.77;57.31
79378;BME280;68959;53.132;17.984;2023-06-05T04:11:00;101767.55;;;10.86;56.85
79378;BME280;68959;53.132;17.984;2023-06-05T04:13:26;101767.10;;;10.97;56.70
79378;BME280;68959;53.132;17.984;2023-06-05T04:15:52;101764.84;;;11.07;56.56
79378;BME280;68959;53.132;17.984;2023-06-05T04:18:19;101763.25;;;11.18;56.17
79378;BME280;68959;53.132;17.984;2023-06-05T04:20:46;101763.13;;;11.30;56.04
79378;BME280;68959;53.132;17.984;2023-06-05T04:23:13;101757.64;;;11.40;55.87
79378;BME280;68959;53.132;17.984;2023-06-05T04:25:40;101759.23;;;11.53;55.76
79378;BME280;68959;53.132;17.984;2023-06-05T04:28:11;101761.16;;;11.66;55.67
79378;BME280;68959;53.132;17.984;2023-06-05T04:30:38;101762.66;;;11.79;55.52
79378;BME280;68959;53.132;17.984;2023-06-05T04:33:04;101756.27;;;11.90;55.28
79378;BME280;68959;53.132;17.984;2023-06-05T04:35:32;101757.05;;;12.02;55.08
79378;BME280;68959;53.132;17.984;2023-06-05T04:37:59;101756.72;;;12.14;54.66
79378;BME280;68959;53.132;17.984;2023-06-05T04:40:26;101755.30;;;12.28;54.50
79378;BME280;68959;53.132;17.984;2023-06-05T04:42:53;101754.93;;;12.43;54.23
79378;BME280;68959;53.132;17.984;2023-06-05T04:45:21;101754.17;;;12.59;53.98
79378;BME280;68959;53.132;17.984;2023-06-05T04:47:47;101752.16;;;12.72;53.59
79378;BME280;68959;53.132;17.984;2023-06-05T04:50:34;101748.52;;;12.85;53.48
79378;BME280;68959;53.132;17.984;2023-06-05T04:53:04;101748.64;;;12.97;52.96
79378;BME280;68959;53.132;17.984;2023-06-05T04:55:31;101750.12;;;13.05;52.82
79378;BME280;68959;53.132;17.984;2023-06-05T04:57:57;101747.95;;;13.14;52.64
79378;BME280;68959;53.132;17.984;2023-06-05T05:00:27;101748.52;;;13.24;52.54
79378;BME280;68959;53.132;17.984;2023-06-05T05:02:53;101746.74;;;13.38;52.28
79378;BME280;68959;53.132;17.984;2023-06-05T05:05:20;101745.42;;;13.52;52.17
79378;BME280;68959;53.132;17.984;2023-06-05T05:07:47;101745.91;;;13.67;51.73
79378;BME280;68959;53.132;17.984;2023-06-05T05:10:14;101745.09;;;13.76;51.54
79378;BME280;68959;53.132;17.984;2023-06-05T05:12:40;101744.06;;;13.83;51.19
79378;BME280;68959;53.132;17.984;2023-06-05T05:15:07;101746.52;;;13.94;51.02
79378;BME280;68959;53.132;17.984;2023-06-05T05:17:33;101746.21;;;14.07;51.24
79378;BME280;68959;53.132;17.984;2023-06-05T05:19:59;101744.16;;;14.19;50.55
79378;BME280;68959;53.132;17.984;2023-06-05T05:22:26;101745.39;;;14.29;50.42
79378;BME280;68959;53.132;17.984;2023-06-05T05:24:53;101744.23;;;14.42;50.46
79378;BME280;68959;53.132;17.984;2023-06-05T05:27:19;101739.49;;;14.58;50.14
79378;BME280;68959;53.132;17.984;2023-06-05T05:29:45;101741.71;;;14.71;49.34
79378;BME280;68959;53.132;17.984;2023-06-05T05:32:12;101740.63;;;14.86;49.27
79378;BME280;68959;53.132;17.984;2023-06-05T05:34:38;101736.14;;;15.01;49.08
79378;BME280;68959;53.132;17.984;2023-06-05T05:37:04;101743.39;;;15.13;48.82
79378;BME280;68959;53.132;17.984;2023-06-05T05:39:30;101742.95;;;15.27;48.33
79378;BME280;68959;53.132;17.984;2023-06-05T05:41:56;101740.33;;;15.41;48.04
79378;BME280;68959;53.132;17.984;2023-06-05T05:44:23;101743.14;;;15.48;47.38
79378;BME280;68959;53.132;17.984;2023-06-05T05:46:49;101743.46;;;15.56;47.58
79378;BME280;68959;53.132;17.984;2023-06-05T05:49:15;101740.45;;;15.67;47.32
79378;BME280;68959;53.132;17.984;2023-06-05T05:51:41;101743.49;;;15.73;47.00
79378;BME280;68959;53.132;17.984;2023-06-05T05:54:07;101741.98;;;15.84;47.03
79378;BME280;68959;53.132;17.984;2023-06-05T05:56:33;101743.16;;;16.02;46.82
79378;BME280;68959;53.132;17.984;2023-06-05T05:59:00;101741.12;;;16.15;46.30
79378;BME280;68959;53.132;17.984;2023-06-05T06:01:26;101743.63;;;16.30;46.10
79378;BME280;68959;53.132;17.984;2023-06-05T06:03:53;101743.05;;;16.46;45.82
79378;BME280;68959;53.132;17.984;2023-06-05T06:06:20;101742.06;;;16.60;45.04
79378;BME280;68959;53.132;17.984;2023-06-05T06:08:46;101739.16;;;16.69;44.77
79378;BME280;68959;53.132;17.984;2023-06-05T06:11:12;101738.77;;;16.97;44.67
79378;BME280;68959;53.132;17.984;2023-06-05T06:13:38;101738.64;;;17.34;44.22
79378;BME280;68959;53.132;17.984;2023-06-05T06:16:04;101739.81;;;17.79;43.63
79378;BME280;68959;53.132;17.984;2023-06-05T06:18:31;101736.18;;;18.28;42.54
79378;BME280;68959;53.132;17.984;2023-06-05T06:20:57;101735.17;;;18.69;41.87
79378;BME280;68959;53.132;17.984;2023-06-05T06:23:24;101740.48;;;19.04;41.17
79378;BME280;68959;53.132;17.984;2023-06-05T06:25:50;101743.58;;;19.23;40.61
79378;BME280;68959;53.132;17.984;2023-06-05T06:28:17;101744.38;;;19.33;40.25
79378;BME280;68959;53.132;17.984;2023-06-05T06:30:45;101744.98;;;19.38;40.12
79378;BME280;68959;53.132;17.984;2023-06-05T06:33:11;101748.02;;;19.45;39.91
79378;BME280;68959;53.132;17.984;2023-06-05T06:35:37;101748.88;;;19.53;39.58
79378;BME280;68959;53.132;17.984;2023-06-05T06:38:03;101747.25;;;19.60;39.38
79378;BME280;68959;53.132;17.984;2023-06-05T06:40:29;101749.69;;;19.68;38.68
79378;BME280;68959;53.132;17.984;2023-06-05T06:42:55;101748.29;;;19.90;38.47
79378;BME280;68959;53.132;17.984;2023-06-05T06:45:41;101751.31;;;20.19;37.44
79378;BME280;68959;53.132;17.984;2023-06-05T06:48:07;101748.91;;;20.51;37.70
79378;BME280;68959;53.132;17.984;2023-06-05T06:50:33;101740.75;;;20.94;37.12
79378;BME280;68959;53.132;17.984;2023-06-05T06:52:59;101740.33;;;21.38;36.67
79378;BME280;68959;53.132;17.984;2023-06-05T06:55:25;101740.70;;;21.83;35.94
79378;BME280;68959;53.132;17.984;2023-06-05T06:57:51;101740.95;;;22.18;35.33
79378;BME280;68959;53.132;17.984;2023-06-05T07:00:17;101739.24;;;22.53;34.72
79378;BME280;68959;53.132;17.984;2023-06-05T07:02:44;101736.94;;;22.83;34.16
79378;BME280;68959;53.132;17.984;2023-06-05T07:05:10;101736.63;;;23.17;33.63
79378;BME280;68959;53.132;17.984;2023-06-05T07:07:36;101739.13;;;23.46;33.03
79378;BME280;68959;53.132;17.984;2023-06-05T07:10:02;101732.37;;;23.83;32.62
79378;BME280;68959;53.132;17.984;2023-06-05T07:12:29;101737.44;;;24.22;31.93
79378;BME280;68959;53.132;17.984;2023-06-05T07:14:55;101732.05;;;24.48;31.23
79378;BME280;68959;53.132;17.984;2023-06-05T07:17:21;101730.19;;;24.77;30.39
79378;BME280;68959;53.132;17.984;2023-06-05T07:19:47;101731.48;;;24.95;29.55
79378;BME280;68959;53.132;17.984;2023-06-05T07:22:13;101727.40;;;25.25;29.12
79378;BME280;68959;53.132;17.984;2023-06-05T07:24:39;101728.58;;;25.54;28.96
79378;BME280;68959;53.132;17.984;2023-06-05T07:27:06;101725.02;;;25.90;28.81
79378;BME280;68959;53.132;17.984;2023-06-05T07:29:32;101723.04;;;26.16;27.27
79378;BME280;68959;53.132;17.984;2023-06-05T07:31:58;101723.15;;;26.24;27.10
79378;BME280;68959;53.132;17.984;2023-06-05T07:34:25;101720.60;;;26.42;26.79
79378;BME280;68959;53.132;17.984;2023-06-05T07:36:52;101723.01;;;26.63;25.88
79378;BME280;68959;53.132;17.984;2023-06-05T07:39:20;101724.16;;;26.77;25.20
79378;BME280;68959;53.132;17.984;2023-06-05T07:41:46;101726.41;;;26.93;25.22
79378;BME280;68959;53.132;17.984;2023-06-05T07:44:14;101724.94;;;27.14;24.95
79378;BME280;68959;53.132;17.984;2023-06-05T07:46:45;101723.16;;;27.43;25.11
79378;BME280;68959;53.132;17.984;2023-06-05T07:49:12;101723.02;;;27.76;24.24
79378;BME280;68959;53.132;17.984;2023-06-05T07:51:40;101720.13;;;27.99;23.36
79378;BME280;68959;53.132;17.984;2023-06-05T07:54:07;101717.11;;;28.25;22.91
79378;BME280;68959;53.132;17.984;2023-06-05T07:56:34;101715.81;;;28.53;22.67
79378;BME280;68959;53.132;17.984;2023-06-05T07:59:01;101716.62;;;28.69;20.91
79378;BME280;68959;53.132;17.984;2023-06-05T08:01:29;101716.34;;;28.58;20.59
79378;BME280;68959;53.132;17.984;2023-06-05T08:03:55;101714.10;;;28.73;21.32
79378;BME280;68959;53.132;17.984;2023-06-05T08:06:23;101712.25;;;29.05;20.32
79378;BME280;68959;53.132;17.984;2023-06-05T08:08:50;101715.41;;;29.31;20.40
79378;BME280;68959;53.132;17.984;2023-06-05T08:11:17;101707.90;;;29.45;19.56
79378;BME280;68959;53.132;17.984;2023-06-05T08:13:43;101707.98;;;29.48;19.87
79378;BME280;68959;53.132;17.984;2023-06-05T08:16:09;101710.93;;;29.86;19.83
79378;BME280;68959;53.132;17.984;2023-06-05T08:18:35;101708.15;;;30.22;19.25
79378;BME280;68959;53.132;17.984;2023-06-05T08:21:01;101710.79;;;30.56;19.04
79378;BME280;68959;53.132;17.984;2023-06-05T08:23:28;101708.73;;;30.88;18.60
79378;BME280;68959;53.132;17.984;2023-06-05T08:25:54;101713.74;;;31.17;18.49
79378;BME280;68959;53.132;17.984;2023-06-05T08:28:20;101711.25;;;31.46;17.68
79378;BME280;68959;53.132;17.984;2023-06-05T08:30:46;101711.83;;;31.59;17.64
79378;BME280;68959;53.132;17.984;2023-06-05T08:33:11;101708.14;;;31.82;17.41
79378;BME280;68959;53.132;17.984;2023-06-05T08:35:41;101711.58;;;32.20;17.17
79378;BME280;68959;53.132;17.984;2023-06-05T08:38:07;101710.81;;;32.46;15.67
79378;BME280;68959;53.132;17.984;2023-06-05T08:40:33;101711.61;;;32.36;15.67
79378;BME280;68959;53.132;17.984;2023-06-05T08:43:02;101707.55;;;32.47;15.84
79378;BME280;68959;53.132;17.984;2023-06-05T08:45:30;101707.09;;;32.31;14.81
79378;BME280;68959;53.132;17.984;2023-06-05T08:47:59;101708.44;;;31.93;15.08
79378;BME280;68959;53.132;17.984;2023-06-05T08:50:27;101706.06;;;31.69;15.20
79378;BME280;68959;53.132;17.984;2023-06-05T08:52:57;101706.27;;;31.58;15.02
79378;BME280;68959;53.132;17.984;2023-06-05T08:55:24;101705.04;;;31.47;14.94
79378;BME280;68959;53.132;17.984;2023-06-05T08:57:51;101698.02;;;31.42;14.89
79378;BME280;68959;53.132;17.984;2023-06-05T09:00:18;101694.45;;;31.55;14.96
79378;BME280;68959;53.132;17.984;2023-06-05T09:02:44;101696.54;;;31.97;14.87
79378;BME280;68959;53.132;17.984;2023-06-05T09:05:16;101696.77;;;32.40;14.59
79378;BME280;68959;53.132;17.984;2023-06-05T09:07:43;101691.90;;;32.54;13.93
79378;BME280;68959;53.132;17.984;2023-06-05T09:10:23;101690.63;;;32.85;14.05
79378;BME280;68959;53.132;17.984;2023-06-05T09:12:58;101691.02;;;33.44;13.98
79378;BME280;68959;53.132;17.984;2023-06-05T09:15:24;101689.11;;;33.99;13.35
79378;BME280;68959;53.132;17.984;2023-06-05T09:18:10;101689.70;;;34.13;13.29
79378;BME280;68959;53.132;17.984;2023-06-05T09:20:38;101686.71;;;34.75;13.04
79378;BME280;68959;53.132;17.984;2023-06-05T09:23:24;101679.42;;;35.42;12.55
79378;BME280;68959;53.132;17.984;2023-06-05T09:25:59;101675.23;;;35.96;11.92
79378;BME280;68959;53.132;17.984;2023-06-05T09:28:25;101680.08;;;36.21;11.53
79378;BME280;68959;53.132;17.984;2023-06-05T09:30:59;101675.70;;;36.00;11.12
79378;BME280;68959;53.132;17.984;2023-06-05T09:33:28;101677.23;;;35.92;11.59
79378;BME280;68959;53.132;17.984;2023-06-05T09:36:01;101673.70;;;36.02;11.30
79378;BME280;68959;53.132;17.984;2023-06-05T09:38:27;101673.27;;;35.69;11.10
79378;BME280;68959;53.132;17.984;2023-06-05T09:41:01;101671.33;;;34.85;11.40
79378;BME280;68959;53.132;17.984;2023-06-05T09:43:27;101679.62;;;34.39;11.85
79378;BME280;68959;53.132;17.984;2023-06-05T09:45:53;101676.83;;;34.37;11.90
79378;BME280;68959;53.132;17.984;2023-06-05T09:48:19;101671.09;;;34.85;11.61
79378;BME280;68959;53.132;17.984;2023-06-05T09:50:45;101666.51;;;35.31;11.37
79378;BME280;68959;53.132;17.984;2023-06-05T09:53:15;101667.84;;;35.56;11.40
79378;BME280;68959;53.132;17.984;2023-06-05T09:55:42;101662.79;;;36.19;11.29
79378;BME280;68959;53.132;17.984;2023-06-05T09:58:11;101658.77;;;36.94;10.70
79378;BME280;68959;53.132;17.984;2023-06-05T10:00:40;101654.72;;;37.62;10.74
79378;BME280;68959;53.132;17.984;2023-06-05T10:03:10;101645.72;;;38.48;10.27
79378;BME280;68959;53.132;17.984;2023-06-05T10:05:39;101643.29;;;39.01;9.53
79378;BME280;68959;53.132;17.984;2023-06-05T10:08:06;101642.58;;;38.80;9.25
79378;BME280;68959;53.132;17.984;2023-06-05T10:10:35;101641.09;;;38.35;9.45
79378;BME280;68959;53.132;17.984;2023-06-05T10:13:02;101638.44;;;38.40;9.77
79378;BME280;68959;53.132;17.984;2023-06-05T10:15:31;101633.54;;;38.77;9.34
79378;BME280;68959;53.132;17.984;2023-06-05T10:17:58;101635.79;;;38.41;9.28
79378;BME280;68959;53.132;17.984;2023-06-05T10:20:24;101638.30;;;37.64;9.77
79378;BME280;68959;53.132;17.984;2023-06-05T10:22:50;101641.50;;;37.25;9.86
79378;BME280;68959;53.132;17.984;2023-06-05T10:25:17;101632.65;;;37.55;10.06
79378;BME280;68959;53.132;17.984;2023-06-05T10:33:28;101622.45;;;39.88;8.74
79378;BME280;68959;53.132;17.984;2023-06-05T10:36:05;101615.85;;;38.94;8.93
79378;BME280;68959;53.132;17.984;2023-06-05T10:38:37;101618.35;;;39.34;9.00
79378;BME280;68959;53.132;17.984;2023-06-05T10:41:04;101617.91;;;39.49;8.87
79378;BME280;68959;53.132;17.984;2023-06-05T10:43:36;101617.24;;;38.16;9.26
79378;BME280;68959;53.132;17.984;2023-06-05T10:46:30;101617.91;;;36.97;9.99
79378;BME280;68959;53.132;17.984;2023-06-05T10:49:06;101620.55;;;35.30;10.84
79378;BME280;68959;53.132;17.984;2023-06-05T10:51:42;101617.02;;;34.20;11.57
79378;BME280;68959;53.132;17.984;2023-06-05T10:54:14;101612.36;;;33.84;11.86
79378;BME280;68959;53.132;17.984;2023-06-05T10:59:23;101608.00;;;34.20;11.94
79378;BME280;68959;53.132;17.984;2023-06-05T11:10:05;101597.26;;;37.57;9.68
79378;BME280;68959;53.132;17.984;2023-06-05T11:15:08;101595.38;;;35.24;11.10
79378;BME280;68959;53.132;17.984;2023-06-05T11:17:36;101595.84;;;34.06;11.88
79378;BME280;68959;53.132;17.984;2023-06-05T11:20:07;101601.33;;;32.68;12.69
79378;BME280;68959;53.132;17.984;2023-06-05T11:27:57;101603.52;;;31.70;13.43
79378;BME280;68959;53.132;17.984;2023-06-05T11:30:30;101595.07;;;33.95;12.46
79378;BME280;68959;53.132;17.984;2023-06-05T11:35:35;101580.02;;;38.10;10.37
79378;BME280;68959;53.132;17.984;2023-06-05T11:38:12;101571.06;;;39.51;9.48
79378;BME280;68959;53.132;17.984;2023-06-05T11:40:39;101570.45;;;40.42;9.03
79378;BME280;68959;53.132;17.984;2023-06-05T11:43:08;101568.29;;;41.29;8.57
79378;BME280;68959;53.132;17.984;2023-06-05T11:45:36;101566.02;;;41.42;7.96
79378;BME280;68959;53.132;17.984;2023-06-05T11:48:08;101561.02;;;41.40;7.87
79378;BME280;68959;53.132;17.984;2023-06-05T11:50:37;101562.31;;;41.20;7.65
79378;BME280;68959;53.132;17.984;2023-06-05T11:53:05;101562.46;;;41.08;7.99
79378;BME280;68959;53.132;17.984;2023-06-05T11:55:32;101557.11;;;41.80;7.73
79378;BME280;68959;53.132;17.984;2023-06-05T11:58:28;101548.88;;;42.81;7.57
79378;BME280;68959;53.132;17.984;2023-06-05T12:01:18;101554.23;;;43.32;6.81
79378;BME280;68959;53.132;17.984;2023-06-05T12:03:49;101554.04;;;43.02;6.83
79378;BME280;68959;53.132;17.984;2023-06-05T12:06:26;101553.89;;;43.06;6.99
79378;BME280;68959;53.132;17.984;2023-06-05T12:09:06;101547.84;;;43.79;6.83
79378;BME280;68959;53.132;17.984;2023-06-05T12:11:33;101546.72;;;43.19;6.76
79378;BME280;68959;53.132;17.984;2023-06-05T12:13:59;101555.48;;;41.09;7.53
79378;BME280;68959;53.132;17.984;2023-06-05T12:16:40;101553.58;;;38.99;8.22
79378;BME280;68959;53.132;17.984;2023-06-05T12:19:14;101558.67;;;36.73;9.50
79378;BME280;68959;53.132;17.984;2023-06-05T12:21:40;101557.94;;;35.47;10.22
79378;BME280;68959;53.132;17.984;2023-06-05T12:24:06;101555.48;;;34.89;10.67
79378;BME280;68959;53.132;17.984;2023-06-05T12:26:52;101558.65;;;33.75;11.40
79378;BME280;68959;53.132;17.984;2023-06-05T12:29:26;101558.27;;;32.98;12.12
79378;BME280;68959;53.132;17.984;2023-06-05T12:31:55;101550.61;;;34.23;11.62
79378;BME280;68959;53.132;17.984;2023-06-05T12:34:42;101544.06;;;36.46;10.93
79378;BME280;68959;53.132;17.984;2023-06-05T12:37:11;101532.75;;;38.72;9.68
79378;BME280;68959;53.132;17.984;2023-06-05T12:39:38;101533.45;;;39.87;8.83
79378;BME280;68959;53.132;17.984;2023-06-05T12:42:05;101531.30;;;39.96;8.38
79378;BME280;68959;53.132;17.984;2023-06-05T12:44:31;101527.11;;;39.63;8.29
79378;BME280;68959;53.132;17.984;2023-06-05T12:46:57;101524.88;;;39.57;8.36
79378;BME280;68959;53.132;17.984;2023-06-05T12:49:23;101524.42;;;39.71;8.32
79378;BME280;68959;53.132;17.984;2023-06-05T12:51:49;101519.90;;;39.73;8.13
79378;BME280;68959;53.132;17.984;2023-06-05T12:54:15;101521.22;;;37.85;8.97
79378;BME280;68959;53.132;17.984;2023-06-05T12:56:50;101524.06;;;36.36;9.92
79378;BME280;68959;53.132;17.984;2023-06-05T12:59:17;101517.80;;;35.31;10.57
79378;BME280;68959;53.132;17.984;2023-06-05T13:01:43;101515.72;;;34.56;11.13
79378;BME280;68959;53.132;17.984;2023-06-05T13:04:09;101520.17;;;33.13;12.44
79378;BME280;68959;53.132;17.984;2023-06-05T13:06:35;101523.77;;;31.68;13.53
79378;BME280;68959;53.132;17.984;2023-06-05T13:09:01;101524.53;;;30.58;14.42
79378;BME280;68959;53.132;17.984;2023-06-05T13:11:29;101525.91;;;29.95;14.92
79378;BME280;68959;53.132;17.984;2023-06-05T13:13:55;101522.31;;;29.50;15.43
79378;BME280;68959;53.132;17.984;2023-06-05T13:16:21;101521.05;;;29.34;15.41
79378;BME280;68959;53.132;17.984;2023-06-05T13:18:47;101516.98;;;30.53;14.53
79378;BME280;68959;53.132;17.984;2023-06-05T13:21:13;101515.79;;;31.61;13.98